createdAt,value
2023-02-26T00:00:15.713Z,5.63
2023-02-26T00:05:18.914Z,6.90
2023-02-26T00:10:21.367Z,6.70
2023-02-26T00:15:25.118Z,6.07
2023-02-26T00:20:27.846Z,6.28
2023-02-26T00:25:30.967Z,5.78
2023-02-26T00:30:34.299Z,5.47
2023-02-26T00:35:38.107Z,5.60
2023-02-26T00:40:47.442Z,6.35
2023-02-26T00:45:59.130Z,6.47
2023-02-26T00:51:24.924Z,5.85
2023-02-26T00:56:27.359Z,4.57
2023-02-26T01:01:32.931Z,6.80
2023-02-26T01:06:46.174Z,5.68
2023-02-26T01:11:49.023Z,5.05
2023-02-26T01:16:59.381Z,4.60
2023-02-26T01:22:14.822Z,4.88
2023-02-26T01:27:17.809Z,5.40
2023-02-26T01:32:31.415Z,4.68
2023-02-26T01:37:54.840Z,5.00
2023-02-26T01:43:06.191Z,4.60
2023-02-26T01:48:31.971Z,5.53
2023-02-26T01:53:34.705Z,4.68
2023-02-26T01:58:38.129Z,4.63
2023-02-26T02:03:43.896Z,4.70
2023-02-26T02:14:05.356Z,4.72
2023-02-26T02:19:26.394Z,5.00
2023-02-26T02:24:47.963Z,4.85
2023-02-26T02:30:10.618Z,4.32
2023-02-26T02:35:23.990Z,5.00
2023-02-26T02:40:32.324Z,4.53
2023-02-26T02:45:42.254Z,4.45
2023-02-26T02:50:55.394Z,4.55
2023-02-26T02:56:27.975Z,3.97
2023-02-26T03:01:34.262Z,4.60
2023-02-26T03:06:36.961Z,4.15
2023-02-26T03:11:40.493Z,4.32
2023-02-26T03:16:59.621Z,4.18
2023-02-26T03:22:16.374Z,3.90
2023-02-26T03:28:05.614Z,4.78
2023-02-26T03:33:18.515Z,4.45
2023-02-26T03:38:56.654Z,5.07
2023-02-26T03:44:20.578Z,4.82
2023-02-26T03:49:30.484Z,4.53
2023-02-26T03:54:44.271Z,5.68
2023-02-26T04:00:14.814Z,5.35
2023-02-26T04:05:23.432Z,5.38
2023-02-26T04:10:34.530Z,3.60
2023-02-26T04:15:38.299Z,3.38
2023-02-26T04:20:40.793Z,3.38
2023-02-26T04:25:46.453Z,3.13
2023-02-26T04:30:51.488Z,3.17
2023-02-26T04:35:54.585Z,3.67
2023-02-26T04:40:58.384Z,3.08
2023-02-26T04:46:01.249Z,3.85
2023-02-26T04:51:05.643Z,3.78
2023-02-26T04:56:09.135Z,4.43
2023-02-26T05:01:13.935Z,3.72
2023-02-26T05:06:17.448Z,4.00
2023-02-26T05:11:20.714Z,3.47
2023-02-26T05:16:26.842Z,3.35
2023-02-26T05:21:29.528Z,3.67
2023-02-26T05:26:32.669Z,3.95
2023-02-26T05:31:35.740Z,3.17
2023-02-26T05:36:39.007Z,3.20
2023-02-26T05:41:41.362Z,3.67
2023-02-26T05:46:44.749Z,3.35
2023-02-26T05:51:47.660Z,3.88
2023-02-26T05:56:51.500Z,3.58
2023-02-26T06:01:56.456Z,3.30
2023-02-26T06:07:00.721Z,3.72
2023-02-26T06:12:03.232Z,4.05
2023-02-26T06:17:07.360Z,4.40
2023-02-26T06:22:10.204Z,4.45
2023-02-26T06:27:12.531Z,4.57
2023-02-26T06:32:15.605Z,4.82
2023-02-26T06:37:17.990Z,5.43
2023-02-26T06:42:20.912Z,5.90
2023-02-26T06:47:24.731Z,4.32
2023-02-26T06:52:27.539Z,3.80
2023-02-26T06:57:29.856Z,2.42
2023-02-26T07:02:32.362Z,8.48
2023-02-26T07:07:35.148Z,4.45
2023-02-26T07:12:38.560Z,3.00
2023-02-26T07:17:41.282Z,3.60
2023-02-26T07:22:45.566Z,3.10
2023-02-26T07:27:48.209Z,4.30
2023-02-26T07:32:51.174Z,3.70
2023-02-26T07:37:54.155Z,3.15
2023-02-26T07:42:56.642Z,4.55
2023-02-26T07:47:59.796Z,4.20
2023-02-26T07:53:02.919Z,4.70
2023-02-26T07:58:05.487Z,3.08
2023-02-26T08:03:07.862Z,4.78
2023-02-26T08:08:10.756Z,2.75
2023-02-26T08:13:13.091Z,5.00
2023-02-26T08:18:15.628Z,3.80
2023-02-26T08:23:18.492Z,3.47
2023-02-26T08:28:20.890Z,3.10
2023-02-26T08:33:25.680Z,3.97
2023-02-26T08:38:29.747Z,3.72
2023-02-26T08:43:32.800Z,2.75
2023-02-26T08:48:35.570Z,3.47
2023-02-26T08:53:37.985Z,3.13
2023-02-26T08:58:40.489Z,3.17
2023-02-26T09:03:44.408Z,3.10
2023-02-26T09:08:47.984Z,3.08
2023-02-26T09:13:50.524Z,3.78
2023-02-26T09:18:52.928Z,3.08
2023-02-26T09:23:55.395Z,3.67
2023-02-26T09:28:57.916Z,3.05
2023-02-26T09:34:00.550Z,3.28
2023-02-26T09:39:03.505Z,3.80
2023-02-26T09:44:25.813Z,3.70
2023-02-26T09:49:37.213Z,3.10
2023-02-26T09:54:46.724Z,3.22
2023-02-26T09:59:49.100Z,3.65
2023-02-26T10:05:21.874Z,3.45
2023-02-26T10:10:54.122Z,2.92
2023-02-26T10:16:02.257Z,3.33
2023-02-26T10:21:13.693Z,3.45
2023-02-26T10:26:24.521Z,4.47
2023-02-26T10:31:49.451Z,3.00
2023-02-26T10:37:28.381Z,3.83
2023-02-26T10:42:42.531Z,3.95
2023-02-26T10:47:57.225Z,3.50
2023-02-26T10:52:59.948Z,3.25
2023-02-26T10:58:17.097Z,3.22
2023-02-26T11:03:37.763Z,3.75
2023-02-26T11:08:44.571Z,3.28
2023-02-26T11:13:47.741Z,3.38
2023-02-26T11:18:55.086Z,3.08
2023-02-26T11:24:26.760Z,3.67
2023-02-26T11:29:37.227Z,3.75
2023-02-26T11:34:40.648Z,3.50
2023-02-26T11:39:43.198Z,3.10
2023-02-26T11:44:48.989Z,3.60
2023-02-26T11:49:56.113Z,3.80
2023-02-26T11:55:17.739Z,3.85
2023-02-26T12:00:27.550Z,3.63
2023-02-26T12:05:31.678Z,4.15
2023-02-26T12:10:43.190Z,3.65
2023-02-26T12:16:39.947Z,4.28
2023-02-26T12:22:05.992Z,4.18
2023-02-26T12:27:30.965Z,3.90
2023-02-26T12:32:56.898Z,4.40
2023-02-26T12:38:02.969Z,6.03
2023-02-26T12:43:08.792Z,3.67
2023-02-26T12:48:50.544Z,3.30
2023-02-26T12:53:59.700Z,3.05
2023-02-26T12:59:22.489Z,3.45
2023-02-26T13:04:51.783Z,3.35
2023-02-26T13:10:11.143Z,3.75
2023-02-26T13:20:27.912Z,3.40
2023-02-26T13:25:39.203Z,3.63
2023-02-26T13:30:48.473Z,3.00
2023-02-26T13:35:54.043Z,3.72
2023-02-26T13:41:05.472Z,3.45
2023-02-26T13:46:21.554Z,3.33
2023-02-26T13:51:44.452Z,3.45
2023-02-26T13:56:46.846Z,3.58
2023-02-26T14:02:03.928Z,4.05
2023-02-26T14:07:16.986Z,4.47
2023-02-26T14:12:24.328Z,3.92
2023-02-26T14:17:35.898Z,3.60
2023-02-26T14:22:43.439Z,4.03
2023-02-26T14:27:48.226Z,4.10
2023-02-26T14:32:57.587Z,5.80
2023-02-26T14:38:05.626Z,4.43
2023-02-26T14:43:19.322Z,4.60
2023-02-26T14:48:25.686Z,4.78
2023-02-26T14:53:42.625Z,4.90
2023-02-26T14:59:00.792Z,5.00
2023-02-26T15:04:15.362Z,5.13
2023-02-26T15:09:41.882Z,5.07
2023-02-26T15:14:59.828Z,5.00
2023-02-26T15:20:24.387Z,5.00
2023-02-26T15:25:34.545Z,4.93
2023-02-26T15:30:37.766Z,4.57
2023-02-26T15:35:40.797Z,4.28
2023-02-26T15:40:43.744Z,4.80
2023-02-26T15:45:49.318Z,5.05
2023-02-26T15:51:01.718Z,4.53
2023-02-26T15:56:09.975Z,3.85
2023-02-26T16:01:22.613Z,3.67
2023-02-26T16:06:30.424Z,4.10
2023-02-26T16:11:37.471Z,3.75
2023-02-26T16:16:46.937Z,3.97
2023-02-26T16:21:51.894Z,4.22
2023-02-26T16:26:57.984Z,4.53
2023-02-26T16:32:03.705Z,4.85
2023-02-26T16:37:34.180Z,4.53
2023-02-26T16:42:38.439Z,4.07
2023-02-26T16:47:41.816Z,4.00
2023-02-26T16:52:48.633Z,4.32
2023-02-26T16:57:51.188Z,3.47
2023-02-26T17:02:53.607Z,3.80
2023-02-26T17:08:06.060Z,4.45
2023-02-26T17:13:20.535Z,3.72
2023-02-26T17:18:22.766Z,3.78
2023-02-26T17:23:30.465Z,3.80
2023-02-26T17:28:38.507Z,3.90
2023-02-26T17:33:43.234Z,3.60
2023-02-26T17:38:47.443Z,4.47
2023-02-26T17:43:51.052Z,4.00
2023-02-26T17:48:53.527Z,3.58
2023-02-26T17:53:56.013Z,3.55
2023-02-26T17:58:59.862Z,3.42
2023-02-26T18:04:03.881Z,3.97
2023-02-26T18:09:07.029Z,4.38
2023-02-26T18:14:10.383Z,3.65
2023-02-26T18:19:14.482Z,4.38
2023-02-26T18:24:16.997Z,4.47
2023-02-26T18:29:23.558Z,4.28
2023-02-26T18:34:26.686Z,4.22
2023-02-26T18:39:32.838Z,4.60
2023-02-26T18:44:35.386Z,4.68
2023-02-26T18:49:38.405Z,4.80
2023-02-26T18:54:41.416Z,4.35
2023-02-26T18:59:44.035Z,5.28
2023-02-26T19:04:47.395Z,5.43
2023-02-26T19:09:49.986Z,6.68
2023-02-26T19:14:52.520Z,6.63
2023-02-26T19:19:54.985Z,6.68
2023-02-26T19:24:57.656Z,6.38
2023-02-26T19:30:00.253Z,6.65
2023-02-26T19:35:02.918Z,6.60
2023-02-26T19:40:11.163Z,5.97
2023-02-26T19:45:15.691Z,5.63
2023-02-26T19:50:19.512Z,7.10
2023-02-26T19:55:22.163Z,5.60
2023-02-26T20:00:24.565Z,4.93
2023-02-26T20:05:27.624Z,6.15
2023-02-26T20:10:31.854Z,5.95
2023-02-26T20:15:34.320Z,6.15
2023-02-26T20:20:36.798Z,6.57
2023-02-26T20:25:39.332Z,6.55
2023-02-26T20:30:41.998Z,5.60
2023-02-26T20:35:46.876Z,5.90
2023-02-26T20:40:50.062Z,6.38
2023-02-26T20:45:55.959Z,6.28
2023-02-26T20:51:03.456Z,6.03
2023-02-26T20:56:06.953Z,6.43
2023-02-26T21:01:09.531Z,6.15
2023-02-26T21:06:11.911Z,6.22
2023-02-26T21:11:14.839Z,6.03
2023-02-26T21:16:17.437Z,6.22
2023-02-26T21:21:19.790Z,6.07
2023-02-26T21:26:23.337Z,6.15
2023-02-26T21:31:26.946Z,6.60
2023-02-26T21:36:30.609Z,5.97
2023-02-26T21:41:34.020Z,5.90
2023-02-26T21:46:37.481Z,6.20
2023-02-26T21:51:39.792Z,5.22
2023-02-26T21:56:42.913Z,7.15
2023-02-26T22:01:45.299Z,7.60
2023-02-26T22:06:47.957Z,6.03
2023-02-26T22:11:50.495Z,6.68
2023-02-26T22:16:53.704Z,6.93
2023-02-26T22:21:56.790Z,6.55
2023-02-26T22:26:59.017Z,7.38
2023-02-26T22:32:02.122Z,7.00
2023-02-26T22:37:04.920Z,7.35
2023-02-26T22:42:09.228Z,6.95
2023-02-26T22:47:11.706Z,6.28
2023-02-26T22:52:15.823Z,6.40
2023-02-26T22:57:18.627Z,6.88
2023-02-26T23:02:23.594Z,6.40
2023-02-26T23:07:26.363Z,6.68
2023-02-26T23:12:28.641Z,6.93
2023-02-26T23:17:31.539Z,7.68
2023-02-26T23:22:33.826Z,8.23
2023-02-26T23:27:36.778Z,7.28
2023-02-26T23:32:39.422Z,7.75
2023-02-26T23:37:42.498Z,7.20
2023-02-26T23:42:45.877Z,7.45
2023-02-26T23:47:48.755Z,7.32
2023-02-26T23:52:51.614Z,6.53
2023-02-26T23:57:54.552Z,7.15
